Time;durP1;ratioP1;P1;durP2;ratioP2;P2;SDS_P1;SDS_P2;PMS_P1;PMS_P2;Temp;Humidity;BMP_temperature;BMP_pressure;BME280_temperature;BME280_humidity;BME280_pressure;Samples;Min_cycle;Max_cycle;Signal;HPM_P1;HPM_P2
2022/09/03 00:01:54;;;;;;;3.20;0.60;;;;;;;13.43;65.57;100622.68;105990;1271;25259;-66
2022/09/03 00:04:31;;;;;;;4.50;0.70;;;;;;;13.39;65.84;100624.71;106047;1271;22639;-68
2022/09/03 00:07:08;;;;;;;4.00;0.80;;;;;;;13.37;65.55;100624.08;106028;1271;25640;-68
2022/09/03 00:09:46;;;;;;;4.50;0.90;;;;;;;13.33;65.69;100621.11;105904;1270;22537;-68
2022/09/03 00:12:23;;;;;;;3.90;0.80;;;;;;;13.30;65.50;100619.89;105815;1270;23053;-67
2022/09/03 00:15:00;;;;;;;3.50;0.80;;;;;;;13.27;65.65;100620.98;106094;1271;25443;-67
2022/09/03 00:17:38;;;;;;;4.80;0.90;;;;;;;13.24;65.84;100622.92;106092;1271;22529;-67
2022/09/03 00:20:15;;;;;;;4.90;0.60;;;;;;;13.20;65.80;100620.21;105839;1270;26554;-68
2022/09/03 00:22:52;;;;;;;4.70;0.90;;;;;;;13.16;65.90;100618.17;105966;1271;22539;-67
2022/09/03 00:25:29;;;;;;;4.80;0.80;;;;;;;13.12;66.01;100611.94;105854;1270;22628;-67
2022/09/03 00:28:06;;;;;;;4.80;0.90;;;;;;;13.07;65.99;100610.64;105917;1271;25404;-68
2022/09/03 00:30:38;;;;;;;3.40;0.80;;;;;;;13.03;66.03;100608.58;105921;1271;22548;-67
2022/09/03 00:33:13;;;;;;;3.70;0.80;;;;;;;12.99;66.20;100608.65;105802;1271;22548;-66
2022/09/03 00:35:52;;;;;;;4.60;0.70;;;;;;;12.93;66.40;100608.66;105709;1271;22616;-66
2022/09/03 00:38:24;;;;;;;6.00;0.80;;;;;;;12.89;66.58;100604.55;105849;1271;22536;-68
2022/09/03 00:41:09;;;;;;;5.00;0.90;;;;;;;12.85;66.50;100603.75;105824;1271;22582;-66
2022/09/03 00:43:58;;;;;;;3.20;0.70;;;;;;;12.80;66.69;100599.36;105850;1271;24360;-67
2022/09/03 00:46:40;;;;;;;4.10;0.90;;;;;;;12.78;66.57;100596.21;105901;1271;22720;-67
2022/09/03 00:49:25;;;;;;;3.70;0.80;;;;;;;12.73;66.76;100603.17;105792;1270;22552;-67
2022/09/03 00:52:11;;;;;;;4.00;0.80;;;;;;;12.67;66.63;100602.36;105694;1271;22584;-67
2022/09/03 00:54:51;;;;;;;4.90;0.70;;;;;;;12.62;66.88;100605.52;105647;1271;24309;-67
2022/09/03 00:57:36;;;;;;;4.00;0.80;;;;;;;12.58;66.96;100605.06;105628;1271;25827;-67
2022/09/03 01:00:12;;;;;;;4.80;0.80;;;;;;;12.53;67.01;100605.39;105863;1271;24425;-67
2022/09/03 01:03:06;;;;;;;5.20;0.80;;;;;;;12.48;67.12;100605.65;105902;1271;22627;-67
2022/09/03 01:05:50;;;;;;;5.50;1.00;;;;;;;12.40;67.24;100607.18;106045;1271;22560;-65
2022/09/03 01:08:38;;;;;;;6.30;0.90;;;;;;;12.31;67.37;100606.02;105875;1271;25311;-67
2022/09/03 01:11:21;;;;;;;4.60;0.90;;;;;;;12.23;67.45;100609.70;101704;1271;5547214;-67
2022/09/03 01:14:05;;;;;;;4.70;0.90;;;;;;;12.16;67.43;100614.30;105757;1271;23113;-67
2022/09/03 01:16:47;;;;;;;5.80;1.60;;;;;;;12.10;67.68;100612.36;105655;1271;22618;-66
2022/09/03 01:19:36;;;;;;;4.30;1.00;;;;;;;12.02;67.72;100609.70;105811;1271;25368;-67
2022/09/03 01:22:27;;;;;;;5.60;0.80;;;;;;;11.95;67.91;100610.53;105810;1271;22544;-66
2022/09/03 01:25:12;;;;;;;5.80;0.80;;;;;;;11.88;68.06;100615.60;105795;1271;22563;-67
2022/09/03 01:27:53;;;;;;;4.80;0.60;;;;;;;11.83;68.27;100615.14;105709;1271;22548;-66
2022/09/03 01:30:24;;;;;;;6.20;0.90;;;;;;;11.81;68.46;100609.36;105751;1271;23067;-67
2022/09/03 01:33:04;;;;;;;5.90;0.80;;;;;;;11.79;68.44;100613.68;105768;1271;25373;-66
2022/09/03 01:35:43;;;;;;;7.20;1.20;;;;;;;11.75;68.70;100610.30;105800;1271;24227;-66
2022/09/03 01:38:27;;;;;;;5.90;0.80;;;;;;;11.70;68.70;100611.77;105715;1271;24240;-67
2022/09/03 01:44:03;;;;;;;4.60;0.90;;;;;;;11.64;68.84;100608.71;105671;1271;24314;-66
2022/09/03 01:46:39;;;;;;;4.50;0.70;;;;;;;11.61;69.13;100607.90;105692;1271;22552;-67
2022/09/03 01:49:21;;;;;;;7.20;1.00;;;;;;;11.61;69.27;100607.34;105799;1271;25325;-66
2022/09/03 01:52:02;;;;;;;5.20;1.30;;;;;;;11.62;69.34;100604.35;105811;1271;26120;-67
2022/09/03 01:54:50;;;;;;;6.40;1.00;;;;;;;11.61;69.24;100599.10;105951;1271;22559;-66
2022/09/03 01:57:33;;;;;;;7.00;0.80;;;;;;;11.60;69.37;100600.60;105898;1271;22582;-69
2022/09/03 02:00:09;;;;;;;4.50;0.90;;;;;;;11.58;69.42;100600.15;105792;1270;22555;-66
2022/09/03 02:02:42;;;;;;;3.90;0.80;;;;;;;11.57;69.50;100598.72;106024;1271;22566;-72
2022/09/03 02:05:17;;;;;;;5.00;1.00;;;;;;;11.55;69.42;100597.24;105717;1271;25663;-67
2022/09/03 02:07:54;;;;;;;5.90;1.10;;;;;;;11.53;69.58;100594.15;105904;1271;25318;-69
2022/09/03 02:10:30;;;;;;;9.00;1.20;;;;;;;11.50;69.48;100593.75;105720;1270;22775;-67
2022/09/03 02:13:07;;;;;;;4.60;0.90;;;;;;;11.45;69.45;100594.44;105699;1271;22555;-67
2022/09/03 02:15:41;;;;;;;5.50;1.10;;;;;;;11.38;69.68;100595.07;105760;1270;22716;-67
2022/09/03 02:18:18;;;;;;;7.30;1.20;;;;;;;11.34;69.74;100595.06;105782;1270;22754;-66
2022/09/03 02:20:52;;;;;;;10.70;1.20;;;;;;;11.28;69.67;100594.48;106034;1271;22556;-68
2022/09/03 02:23:25;;;;;;;4.50;1.10;;;;;;;11.20;69.68;100596.30;105674;1270;25486;-67
2022/09/03 02:26:01;;;;;;;5.00;1.10;;;;;;;11.14;69.74;100596.53;105691;1271;25420;-67
2022/09/03 02:28:34;;;;;;;6.70;1.10;;;;;;;11.08;69.93;100595.23;105799;1270;22563;-67
2022/09/03 02:31:06;;;;;;;3.70;0.90;;;;;;;11.02;69.89;100596.96;105679;1271;22559;-67
2022/09/03 02:33:40;;;;;;;8.70;1.10;;;;;;;10.96;70.03;100597.23;105654;1271;24323;-67
2022/09/03 02:36:14;;;;;;;7.10;1.20;;;;;;;10.92;70.18;100593.48;105732;1271;22569;-66
2022/09/03 02:38:47;;;;;;;6.30;1.00;;;;;;;10.88;70.18;100599.11;105824;1271;24305;-67
2022/09/03 02:41:19;;;;;;;5.80;1.10;;;;;;;10.83;70.33;100604.28;105766;1270;22546;-67
2022/09/03 02:43:55;;;;;;;4.40;1.00;;;;;;;10.78;70.31;100605.02;105751;1271;22808;-67
2022/09/03 02:46:32;;;;;;;6.00;1.30;;;;;;;10.73;70.57;100599.63;105742;1270;22636;-69
2022/09/03 02:49:04;;;;;;;7.00;1.00;;;;;;;10.69;70.41;100602.73;105730;1271;22574;-67
2022/09/03 02:51:37;;;;;;;4.50;1.10;;;;;;;10.63;70.59;100602.44;105713;1271;24688;-66
2022/09/03 02:54:10;;;;;;;5.80;1.20;;;;;;;10.59;70.78;100604.22;105697;1270;25427;-67
2022/09/03 02:56:42;;;;;;;5.50;1.20;;;;;;;10.53;70.83;100604.03;105754;1271;22604;-67
2022/09/03 02:59:13;;;;;;;7.00;1.10;;;;;;;10.48;70.94;100605.71;105763;1270;22704;-65
2022/09/03 03:01:45;;;;;;;5.40;1.00;;;;;;;10.40;70.99;100603.29;105786;1270;22496;-66
2022/09/03 03:04:16;;;;;;;8.80;2.20;;;;;;;10.32;71.25;100605.11;105734;1270;22618;-66
2022/09/03 03:06:49;;;;;;;8.70;1.40;;;;;;;10.26;71.25;100602.90;105697;1270;25464;-67
2022/09/03 03:09:20;;;;;;;5.60;0.90;;;;;;;10.20;71.26;100598.87;105702;1271;22780;-66
2022/09/03 03:11:54;;;;;;;6.20;1.30;;;;;;;10.15;71.31;100599.83;105700;1271;22677;-66
2022/09/03 03:14:25;;;;;;;6.10;1.10;;;;;;;10.08;71.51;100600.98;106137;1270;22573;-66
2022/09/03 03:16:56;;;;;;;6.90;1.20;;;;;;;10.01;71.61;100602.23;105897;1270;22666;-66
2022/09/03 03:19:28;;;;;;;5.80;1.20;;;;;;;9.96;71.74;100602.80;105630;1270;23087;-66
2022/09/03 03:22:00;;;;;;;6.40;1.10;;;;;;;9.92;71.80;100602.77;105711;1271;22528;-66
2022/09/03 03:24:32;;;;;;;4.50;1.00;;;;;;;9.88;72.02;100609.07;105748;1270;25146;-67
2022/09/03 03:27:07;;;;;;;5.80;1.00;;;;;;;9.84;72.11;100607.30;105651;1270;22541;-66
2022/09/03 03:29:39;;;;;;;4.80;1.20;;;;;;;9.82;72.14;100604.56;105857;1270;24289;-66
2022/09/03 03:32:10;;;;;;;7.00;1.10;;;;;;;9.82;72.48;100604.48;105638;1271;22672;-66
2022/09/03 03:34:42;;;;;;;4.40;1.10;;;;;;;9.80;72.37;100601.91;105701;1270;24362;-66
2022/09/03 03:37:14;;;;;;;6.20;1.10;;;;;;;9.77;72.38;100599.90;105666;1270;25284;-68
2022/09/03 03:39:45;;;;;;;7.90;1.10;;;;;;;9.72;72.70;100598.04;105668;1271;22588;-66
2022/09/03 03:42:16;;;;;;;3.70;0.90;;;;;;;9.68;72.69;100598.52;105652;1271;22543;-66
2022/09/03 03:44:48;;;;;;;4.60;1.00;;;;;;;9.67;72.72;100597.88;105914;1271;22698;-67
2022/09/03 03:47:19;;;;;;;7.60;1.10;;;;;;;9.65;72.88;100594.29;105712;1270;22624;-66
2022/09/03 03:49:50;;;;;;;6.80;1.50;;;;;;;9.65;72.95;100598.60;105944;1270;22616;-66
2022/09/03 03:52:25;;;;;;;6.30;1.30;;;;;;;9.64;72.92;100601.48;105671;1271;24326;-67
2022/09/03 03:54:56;;;;;;;5.00;0.90;;;;;;;9.63;73.03;100600.27;105886;1270;24381;-66
2022/09/03 03:57:32;;;;;;;5.90;1.00;;;;;;;9.61;73.04;100599.71;105794;1270;22554;-66
2022/09/03 04:00:04;;;;;;;5.10;0.90;;;;;;;9.60;73.16;100596.90;105899;1270;22628;-66
2022/09/03 04:02:36;;;;;;;6.50;1.30;;;;;;;9.57;73.18;100597.36;105866;1271;25246;-66
2022/09/03 04:05:09;;;;;;;8.60;2.00;;;;;;;9.52;73.14;100606.71;105812;1270;23176;-66
2022/09/03 04:07:43;;;;;;;4.40;0.90;;;;;;;9.47;73.32;100607.27;105693;1270;22551;-69
2022/09/03 04:10:15;;;;;;;6.80;1.10;;;;;;;9.42;73.38;100610.83;105679;1271;25396;-66
2022/09/03 04:12:46;;;;;;;6.20;1.00;;;;;;;9.36;73.53;100604.85;105832;1270;25379;-66
2022/09/03 04:15:19;;;;;;;8.30;1.30;;;;;;;9.32;73.63;100602.81;105848;1270;24420;-67
2022/09/03 04:17:51;;;;;;;6.00;1.00;;;;;;;9.27;73.47;100604.69;105729;1270;24312;-66
2022/09/03 04:20:23;;;;;;;4.50;1.10;;;;;;;9.22;73.57;100608.17;105854;1271;23160;-66
2022/09/03 04:22:55;;;;;;;7.00;1.30;;;;;;;9.18;73.72;100608.80;106025;1271;25588;-66
2022/09/03 04:25:27;;;;;;;7.00;1.10;;;;;;;9.14;73.76;100606.16;105943;1270;23877;-67
2022/09/03 04:27:59;;;;;;;5.30;0.80;;;;;;;9.10;73.82;100602.79;105749;1270;24309;-65
2022/09/03 04:30:30;;;;;;;9.70;1.40;;;;;;;9.06;74.10;100606.59;105732;1270;25381;-67
2022/09/03 04:33:01;;;;;;;9.60;1.70;;;;;;;9.03;74.25;100605.92;105873;1270;24231;-65
2022/09/03 04:35:33;;;;;;;7.50;1.40;;;;;;;9.00;74.41;100611.45;105923;1270;22554;-67
2022/09/03 04:38:04;;;;;;;5.40;1.40;;;;;;;8.99;74.58;100607.92;105777;1271;22562;-66
2022/09/03 04:40:36;;;;;;;7.40;1.50;;;;;;;8.97;74.75;100607.73;106131;1270;22550;-65
2022/09/03 04:43:07;;;;;;;7.80;1.70;;;;;;;8.97;74.94;100610.85;106110;1270;22574;-65
2022/09/03 04:45:39;;;;;;;9.50;2.00;;;;;;;8.96;75.05;100615.96;106030;1269;23990;-65
2022/09/03 04:48:12;;;;;;;9.80;1.70;;;;;;;8.96;75.25;100622.16;106178;1270;22734;-65
2022/09/03 04:50:44;;;;;;;8.60;1.70;;;;;;;8.98;75.21;100629.04;106071;1270;26529;-66
2022/09/03 04:53:15;;;;;;;8.00;1.70;;;;;;;8.99;75.39;100628.33;105978;1270;25455;-65
2022/09/03 04:55:47;;;;;;;9.60;1.50;;;;;;;9.01;75.61;100627.39;105877;1270;22625;-65
2022/09/03 04:58:18;;;;;;;5.80;1.40;;;;;;;9.06;75.62;100627.75;105902;1271;24313;-66
2022/09/03 05:00:50;;;;;;;8.00;1.70;;;;;;;9.11;75.66;100624.14;105670;1270;24250;-65
2022/09/03 05:03:22;;;;;;;7.10;1.50;;;;;;;9.16;75.72;100627.19;105897;1270;22630;-67
2022/09/03 05:05:57;;;;;;;8.00;1.80;;;;;;;9.21;75.65;100621.88;105769;1270;25320;-66
2022/09/03 05:08:28;;;;;;;6.60;1.40;;;;;;;9.26;76.05;100622.73;105962;1270;22578;-65
2022/09/03 05:11:02;;;;;;;11.60;1.40;;;;;;;9.28;76.02;100620.79;105801;1271;25433;-65
2022/09/03 05:13:35;;;;;;;9.40;1.30;;;;;;;9.31;76.20;100624.56;105745;1270;22593;-66
2022/09/03 05:16:09;;;;;;;7.10;1.70;;;;;;;9.35;76.32;100636.03;105749;1270;22681;-65
2022/09/03 05:18:41;;;;;;;7.10;1.40;;;;;;;9.41;76.43;100641.92;105738;1270;22616;-65
2022/09/03 05:21:15;;;;;;;6.80;1.10;;;;;;;9.48;76.46;100644.81;105728;1270;22590;-66
2022/09/03 05:23:49;;;;;;;4.30;1.10;;;;;;;9.56;76.51;100644.45;106275;1271;25315;-65
2022/09/03 05:26:22;;;;;;;9.10;1.50;;;;;;;9.66;76.64;100649.38;105749;1270;24237;-64
2022/09/03 05:28:56;;;;;;;5.80;1.10;;;;;;;9.77;76.67;100651.45;105685;1271;22568;-65
2022/09/03 05:31:30;;;;;;;7.60;1.10;;;;;;;9.88;76.66;100652.70;105892;1270;24220;-67
2022/09/03 05:34:04;;;;;;;5.70;1.00;;;;;;;9.95;76.52;100653.29;105781;1270;23633;-65
2022/09/03 05:36:37;;;;;;;8.60;1.20;;;;;;;10.04;76.90;100653.23;105842;1271;22542;-65
2022/09/03 05:39:09;;;;;;;6.20;0.90;;;;;;;10.13;76.52;100655.17;105617;1270;23909;-65
2022/09/03 05:41:41;;;;;;;5.80;1.20;;;;;;;10.20;76.45;100654.11;105819;1271;22570;-67
2022/09/03 05:44:13;;;;;;;4.60;1.00;;;;;;;10.26;76.37;100650.09;105966;1270;24257;-65
2022/09/03 05:46:45;;;;;;;5.20;1.20;;;;;;;10.34;76.45;100648.95;105809;1270;25650;-65
2022/09/03 05:49:17;;;;;;;6.70;0.90;;;;;;;10.40;76.36;100647.14;105612;1270;25538;-65
2022/09/03 05:54:32;;;;;;;6.40;1.10;;;;;;;10.57;76.25;100649.20;103025;1309;545201;-75
2022/09/03 05:57:04;;;;;;;7.30;1.10;;;;;;;10.64;75.98;100648.14;105710;1281;22643;-76
2022/09/03 05:59:35;;;;;;;6.80;1.10;;;;;;;10.72;76.23;100646.52;105537;1281;25241;-74
2022/09/03 06:02:06;;;;;;;6.40;1.00;;;;;;;10.81;76.22;100643.54;106050;1280;22618;-75
2022/09/03 06:04:37;;;;;;;7.90;1.10;;;;;;;10.90;75.90;100646.19;106046;1281;22567;-74
2022/09/03 06:07:09;;;;;;;4.60;1.00;;;;;;;10.96;75.86;100645.48;102091;1281;5358512;-75
2022/09/03 06:09:41;;;;;;;8.50;1.30;;;;;;;11.01;75.70;100644.36;106003;1278;23494;-75
2022/09/03 06:12:13;;;;;;;4.40;1.00;;;;;;;11.08;75.81;100646.33;105927;1277;24690;-75
2022/09/03 06:14:44;;;;;;;6.60;1.10;;;;;;;11.16;75.75;100642.81;106422;1271;25327;-74
2022/09/03 06:17:16;;;;;;;9.60;1.30;;;;;;;11.22;75.35;100644.02;106518;1270;23078;-75
2022/09/03 06:19:47;;;;;;;2.90;0.80;;;;;;;11.28;75.50;100644.40;106434;1272;26562;-75
2022/09/03 06:22:18;;;;;;;8.00;1.00;;;;;;;11.33;75.56;100640.20;106525;1271;22597;-74
2022/09/03 06:24:49;;;;;;;6.90;1.00;;;;;;;11.40;75.39;100648.17;106497;1271;22550;-76
2022/09/03 06:27:21;;;;;;;6.10;1.20;;;;;;;11.47;75.54;100653.56;106542;1270;22558;-74
2022/09/03 06:29:52;;;;;;;6.70;1.00;;;;;;;11.54;75.16;100654.83;106385;1270;24238;-75
2022/09/03 06:32:23;;;;;;;8.80;1.00;;;;;;;11.61;74.90;100654.56;106350;1270;22674;-74
2022/09/03 06:34:54;;;;;;;6.00;1.00;;;;;;;11.69;74.97;100655.36;106352;1271;22745;-76
2022/09/03 06:37:25;;;;;;;7.60;1.20;;;;;;;11.76;74.56;100655.23;106355;1271;24279;-75
2022/09/03 06:39:57;;;;;;;6.60;1.10;;;;;;;11.85;74.49;100659.67;106462;1271;24358;-75
2022/09/03 06:42:28;;;;;;;5.30;1.10;;;;;;;11.92;74.26;100662.63;106578;1270;23348;-76
2022/09/03 06:45:00;;;;;;;9.50;0.70;;;;;;;12.01;73.63;100662.04;106622;1271;22594;-77
2022/09/03 06:47:32;;;;;;;6.90;1.00;;;;;;;12.09;73.86;100663.52;106621;1270;22586;-76
2022/09/03 06:50:04;;;;;;;4.80;0.90;;;;;;;12.17;73.57;100661.80;106626;1271;26011;-76
2022/09/03 06:52:35;;;;;;;9.30;1.30;;;;;;;12.25;73.12;100662.55;106671;1271;22658;-76
2022/09/03 06:55:08;;;;;;;4.40;0.90;;;;;;;12.32;73.09;100667.17;106695;1270;22548;-75
2022/09/03 06:57:39;;;;;;;9.90;1.30;;;;;;;12.41;72.97;100670.44;107068;1271;22538;-75
2022/09/03 07:00:13;;;;;;;5.30;0.90;;;;;;;12.50;72.61;100670.55;106992;1268;22700;-75
2022/09/03 07:02:44;;;;;;;7.70;1.30;;;;;;;12.59;72.47;100669.25;106987;1267;27658;-75
2022/09/03 07:05:16;;;;;;;6.80;1.10;;;;;;;12.67;72.27;100672.89;106989;1268;22622;-77
2022/09/03 07:07:47;;;;;;;6.90;1.00;;;;;;;12.76;72.04;100674.46;106998;1268;22531;-77
2022/09/03 07:10:20;;;;;;;10.00;1.70;;;;;;;12.85;71.99;100675.02;106991;1268;22767;-77
2022/09/03 07:12:54;;;;;;;10.90;1.10;;;;;;;12.96;71.81;100673.68;107049;1268;22600;-77
2022/09/03 07:15:26;;;;;;;6.20;0.90;;;;;;;13.07;71.76;100667.82;107054;1267;22559;-76
2022/09/03 07:17:57;;;;;;;7.50;1.10;;;;;;;13.15;71.33;100669.22;107000;1267;22701;-76
2022/09/03 07:20:29;;;;;;;6.60;1.30;;;;;;;13.21;71.10;100667.73;107010;1268;24303;-76
2022/09/03 07:23:00;;;;;;;5.40;1.10;;;;;;;13.28;71.02;100664.77;107126;1267;25373;-76
2022/09/03 07:25:31;;;;;;;8.70;1.20;;;;;;;13.36;70.94;100664.45;107092;1267;23586;-76
2022/09/03 07:28:05;;;;;;;4.60;1.10;;;;;;;13.45;70.89;100659.63;107000;1267;22536;-75
2022/09/03 07:30:37;;;;;;;7.30;1.20;;;;;;;13.53;70.94;100662.39;107095;1267;22665;-76
2022/09/03 07:33:08;;;;;;;7.40;1.20;;;;;;;13.65;70.77;100658.92;107022;1267;23133;-75
2022/09/03 07:35:39;;;;;;;7.50;1.20;;;;;;;13.75;70.48;100662.88;107016;1267;26750;-75
2022/09/03 07:38:11;;;;;;;8.40;1.20;;;;;;;13.85;70.37;100664.64;106963;1267;25915;-75
2022/09/03 07:40:42;;;;;;;5.10;1.10;;;;;;;13.93;70.01;100661.02;106982;1267;25254;-77
2022/09/03 07:43:13;;;;;;;5.70;1.10;;;;;;;14.02;69.83;100667.20;106987;1267;22565;-77
2022/09/03 07:45:50;;;;;;;13.10;1.10;;;;;;;14.09;69.64;100665.74;106992;1267;22811;-76
2022/09/03 07:48:21;;;;;;;9.10;1.10;;;;;;;14.16;69.56;100668.90;106984;1267;24282;-76
2022/09/03 07:50:53;;;;;;;9.40;1.50;;;;;;;14.26;69.42;100666.61;107045;1267;22482;-76
2022/09/03 07:53:24;;;;;;;7.80;1.20;;;;;;;14.38;69.64;100666.15;106984;1267;22723;-76
2022/09/03 07:56:01;;;;;;;8.50;1.40;;;;;;;14.51;69.45;100664.29;106960;1267;22540;-76
2022/09/03 07:58:33;;;;;;;7.80;1.40;;;;;;;14.60;69.10;100667.02;106997;1267;23238;-77
2022/09/03 08:01:09;;;;;;;10.90;1.70;;;;;;;14.68;68.89;100665.46;106949;1267;24344;-76
2022/09/03 08:03:43;;;;;;;11.70;1.40;;;;;;;14.76;68.85;100670.55;107082;1267;22561;-77
2022/09/03 08:06:16;;;;;;;5.80;1.20;;;;;;;14.84;68.58;100663.46;107098;1267;22636;-78
2022/09/03 08:08:47;;;;;;;10.90;1.30;;;;;;;14.91;68.56;100662.65;106766;1267;25375;-77
2022/09/03 08:11:21;;;;;;;9.30;1.50;;;;;;;14.97;68.39;100662.85;106997;1267;22532;-77
2022/09/03 08:14:00;;;;;;;6.60;0.90;;;;;;;15.06;68.26;100673.10;107068;1267;22590;-77
2022/09/03 08:16:34;;;;;;;9.80;1.30;;;;;;;15.15;68.23;100671.02;107412;1267;25287;-76
2022/09/03 08:19:06;;;;;;;5.50;1.40;;;;;;;15.24;67.78;100669.18;106974;1267;22503;-77
2022/09/03 08:21:37;;;;;;;13.20;1.80;;;;;;;15.34;67.91;100664.80;106973;1267;22655;-77
2022/09/03 08:24:09;;;;;;;9.40;1.30;;;;;;;15.43;67.95;100661.96;107024;1267;22579;-76
2022/09/03 08:26:44;;;;;;;6.80;1.20;;;;;;;15.54;67.79;100661.05;107066;1267;22525;-76
2022/09/03 08:29:15;;;;;;;5.70;1.20;;;;;;;15.67;68.02;100660.77;106947;1267;22549;-76
2022/09/03 08:31:46;;;;;;;12.30;1.50;;;;;;;15.81;67.42;100658.28;106972;1267;25440;-77
2022/09/03 08:34:17;;;;;;;7.30;1.70;;;;;;;15.90;67.19;100655.35;106972;1267;22604;-74
2022/09/03 08:36:49;;;;;;;8.60;1.40;;;;;;;16.01;67.21;100653.55;107053;1267;22609;-76
2022/09/03 08:39:20;;;;;;;7.30;1.20;;;;;;;16.09;66.78;100644.11;107025;1267;22608;-74
2022/09/03 08:42:10;;;;;;;8.90;1.30;;;;;;;16.20;66.53;100640.64;106875;1267;26609;-78
2022/09/03 08:44:47;;;;;;;9.50;1.50;;;;;;;16.36;66.65;100641.24;107096;1267;22661;-77
2022/09/03 08:47:25;;;;;;;9.10;1.60;;;;;;;16.46;66.03;100635.69;107129;1267;24197;-77
2022/09/03 08:50:02;;;;;;;9.30;1.50;;;;;;;16.56;65.72;100638.19;107363;1267;22544;-77
2022/09/03 08:52:38;;;;;;;4.40;1.10;;;;;;;16.64;65.59;100635.83;107191;1267;25937;-77
2022/09/03 08:55:23;;;;;;;8.50;1.80;;;;;;;16.72;65.45;100636.76;107152;1267;23523;-77
2022/09/03 08:58:02;;;;;;;7.40;1.20;;;;;;;16.81;64.86;100636.10;107323;1267;22527;-77
2022/09/03 09:00:47;;;;;;;6.90;1.30;;;;;;;16.90;64.84;100633.98;107150;1267;25614;-77
2022/09/03 09:03:43;;;;;;;6.80;1.40;;;;;;;17.05;64.80;100635.52;107083;1267;25257;-78
2022/09/03 09:06:21;;;;;;;7.90;1.80;;;;;;;17.18;64.51;100633.77;107064;1267;22537;-78
2022/09/03 09:09:03;;;;;;;7.30;1.50;;;;;;;17.31;64.06;100631.27;107138;1267;24315;-77
2022/09/03 09:11:46;;;;;;;8.60;1.70;;;;;;;17.41;63.70;100623.80;107285;1267;22474;-77
2022/09/03 09:14:26;;;;;;;11.70;2.70;;;;;;;17.52;63.74;100630.83;107315;1267;25249;-77
2022/09/03 09:17:09;;;;;;;15.90;3.70;;;;;;;17.62;63.19;100629.21;107165;1267;25364;-76
2022/09/03 09:19:55;;;;;;;10.00;1.40;;;;;;;17.69;62.54;100627.14;107132;1265;22671;-77
2022/09/03 09:22:31;;;;;;;11.60;1.60;;;;;;;17.74;62.50;100627.11;107151;1267;22565;-76
2022/09/03 09:25:08;;;;;;;9.30;1.60;;;;;;;17.83;62.76;100627.27;107137;1267;22606;-77
2022/09/03 09:27:41;;;;;;;6.90;1.50;;;;;;;17.95;62.90;100625.48;107125;1267;22541;-77
2022/09/03 09:30:16;;;;;;;10.70;1.60;;;;;;;18.10;62.75;100620.93;106977;1267;22733;-78
2022/09/03 09:32:48;;;;;;;5.70;1.40;;;;;;;18.18;61.48;100623.50;107175;1268;24256;-76
2022/09/03 09:35:20;;;;;;;8.30;1.70;;;;;;;18.22;61.06;100623.84;107101;1267;25987;-76
2022/09/03 09:37:56;;;;;;;12.00;2.00;;;;;;;18.26;60.88;100621.14;107272;1267;22565;-76
2022/09/03 09:40:33;;;;;;;8.00;1.30;;;;;;;18.35;60.84;100615.95;107120;1267;24332;-76
2022/09/03 09:43:10;;;;;;;12.60;2.10;;;;;;;18.43;60.53;100614.37;107028;1267;23939;-75
2022/09/03 09:45:44;;;;;;;7.60;1.30;;;;;;;18.53;60.60;100608.91;107403;1267;22962;-76
2022/09/03 09:48:32;;;;;;;7.10;1.40;;;;;;;18.64;60.27;100606.20;107075;1267;25271;-80
2022/09/03 09:51:12;;;;;;;11.20;1.70;;;;;;;18.70;59.39;100599.21;107136;1266;25532;-75
2022/09/03 09:53:45;;;;;;;11.60;2.10;;;;;;;18.76;58.97;100600.09;107335;1267;22691;-76
2022/09/03 09:56:25;;;;;;;11.70;2.00;;;;;;;18.80;58.30;100598.67;107468;1267;25488;-76
2022/09/03 09:59:07;;;;;;;7.80;1.80;;;;;;;18.83;58.09;100603.73;107176;1267;24158;-76
2022/09/03 10:01:41;;;;;;;7.00;1.30;;;;;;;18.88;58.42;100604.81;106978;1267;22533;-76
2022/09/03 10:04:22;;;;;;;6.20;1.00;;;;;;;18.94;58.23;100600.80;107016;1266;25462;-76
2022/09/03 10:07:01;;;;;;;7.60;1.60;;;;;;;19.02;58.21;100604.02;106989;1267;22562;-77
2022/09/03 10:09:34;;;;;;;8.20;2.20;;;;;;;19.09;57.56;100599.47;107134;1266;23583;-75
2022/09/03 10:12:14;;;;;;;8.90;1.50;;;;;;;19.17;57.48;100603.45;107106;1267;24389;-76
2022/09/03 10:14:49;;;;;;;7.30;1.40;;;;;;;19.24;56.75;100604.66;107087;1267;23130;-76
2022/09/03 10:17:28;;;;;;;7.80;1.50;;;;;;;19.27;56.40;100603.08;107297;1267;22564;-77
2022/09/03 10:22:59;;;;;;;7.30;1.20;;;;;;;19.26;55.95;100591.36;106964;1267;22576;-77
2022/09/03 10:25:39;;;;;;;9.20;1.50;;;;;;;19.31;55.80;100594.14;106955;1267;22642;-76
2022/09/03 10:28:12;;;;;;;8.40;1.40;;;;;;;19.36;55.92;100586.09;107057;1267;24699;-77
2022/09/03 10:31:02;;;;;;;9.60;1.80;;;;;;;19.40;55.49;100587.89;107128;1267;22562;-78
2022/09/03 10:33:34;;;;;;;;;;;;;;;19.43;55.55;100586.92;107097;1267;25638;-78
2022/09/03 10:36:18;;;;;;;8.20;1.40;;;;;;;19.46;55.15;100582.00;107211;1266;22547;-78
2022/09/03 10:39:02;;;;;;;8.30;1.30;;;;;;;19.52;55.28;100586.52;107125;1267;25065;-77
2022/09/03 10:41:50;;;;;;;12.20;1.40;;;;;;;19.58;54.75;100583.82;107129;1266;24366;-76
2022/09/03 10:44:46;;;;;;;7.90;1.40;;;;;;;19.59;54.90;100579.79;107117;1267;22663;-75
2022/09/03 10:47:37;;;;;;;11.20;1.50;;;;;;;19.61;54.41;100580.49;106995;1267;26513;-76
2022/09/03 10:50:17;;;;;;;9.90;1.90;;;;;;;19.60;54.43;100574.99;107182;1267;22689;-75
2022/09/03 10:53:08;;;;;;;13.60;1.80;;;;;;;19.59;54.35;100577.59;107013;1267;25280;-76
2022/09/03 10:55:48;;;;;;;11.80;1.50;;;;;;;19.60;54.21;100575.19;107020;1267;23043;-77
2022/09/03 10:58:26;;;;;;;;;;;;;;;19.63;53.75;100573.00;107135;1267;22672;-77
2022/09/03 11:01:07;;;;;;;4.40;0.90;;;;;;;19.63;53.07;100558.83;107076;1267;22472;-75
2022/09/03 11:03:53;;;;;;;9.20;1.30;;;;;;;19.62;53.62;100561.84;106997;1267;23211;-77
2022/09/03 11:06:28;;;;;;;7.20;1.30;;;;;;;19.67;53.39;100560.95;106910;1267;23488;-77
2022/09/03 11:09:07;;;;;;;8.40;1.60;;;;;;;19.73;53.48;100557.06;106823;1267;22609;-76
2022/09/03 11:11:45;;;;;;;11.70;1.20;;;;;;;19.80;53.27;100556.09;106918;1267;24221;-75
2022/09/03 11:14:26;;;;;;;10.70;2.00;;;;;;;19.85;52.75;100554.83;106924;1267;22560;-77
2022/09/03 11:17:03;;;;;;;10.40;1.70;;;;;;;19.89;52.88;100550.09;106966;1267;22687;-75
2022/09/03 11:19:44;;;;;;;11.30;1.70;;;;;;;19.95;53.12;100543.52;107076;1267;23063;-76
2022/09/03 11:22:18;;;;;;;9.70;1.40;;;;;;;20.04;53.00;100538.99;107000;1267;24174;-77
2022/09/03 11:24:57;;;;;;;7.00;1.30;;;;;;;20.13;52.51;100548.95;107175;1267;22548;-78
2022/09/03 11:27:37;;;;;;;7.30;1.60;;;;;;;20.13;51.83;100545.36;107179;1267;22602;-79
2022/09/03 11:30:13;;;;;;;12.90;1.40;;;;;;;20.09;51.76;100543.48;107375;1267;22768;-78
2022/09/03 11:32:53;;;;;;;13.10;1.90;;;;;;;20.04;51.89;100538.88;107477;1266;22586;-79
2022/09/03 11:35:41;;;;;;;12.20;1.60;;;;;;;20.06;52.07;100531.85;107388;1267;26737;-79
2022/09/03 11:38:26;;;;;;;15.10;2.10;;;;;;;20.11;51.69;100527.72;107435;1267;24137;-81
2022/09/03 11:41:04;;;;;;;13.40;2.50;;;;;;;20.16;51.86;100530.73;107953;1267;22583;-81
2022/09/03 11:43:36;;;;;;;9.70;1.90;;;;;;;20.21;51.71;100531.23;107839;1267;22711;-79
2022/09/03 11:46:13;;;;;;;23.50;4.90;;;;;;;20.23;51.80;100530.02;107765;1267;22601;-82
2022/09/03 11:48:47;;;;;;;22.00;4.90;;;;;;;20.23;51.61;100527.62;107601;1266;22561;-80
2022/09/03 11:51:31;;;;;;;20.60;4.30;;;;;;;20.20;51.64;100527.19;107809;1267;26619;-78
2022/09/03 11:54:04;;;;;;;15.20;2.90;;;;;;;20.23;51.26;100521.64;107661;1266;25384;-79
2022/09/03 11:56:37;;;;;;;12.00;1.90;;;;;;;20.23;51.15;100523.11;106908;1267;22689;-77
2022/09/03 11:59:23;;;;;;;11.50;1.90;;;;;;;20.25;50.87;100518.56;106987;1267;22695;-77
2022/09/03 12:02:00;;;;;;;8.50;1.80;;;;;;;20.27;51.13;100519.20;107304;1267;24268;-78
2022/09/03 12:04:42;;;;;;;13.50;2.30;;;;;;;20.33;50.98;100522.20;107253;1267;22681;-78